Time;durP1;ratioP1;P1;durP2;ratioP2;P2;SDS_P1;SDS_P2;PMS_P1;PMS_P2;Temp;Humidity;BMP_temperature;BMP_pressure;BME280_temperature;BME280_humidity;BME280_pressure;Samples;Min_cycle;Max_cycle;Signal;HPM_P1;HPM_P2
2022/03/15 00:01:21;;;;;;;17.77;6.88;;;5.30;99.90;;;;;;5052708;28;20045;-68
2022/03/15 00:03:48;;;;;;;13.43;5.85;;;;;;;;;;5052546;28;20103;-68
2022/03/15 00:06:14;;;;;;;16.42;6.63;;;;;;;;;;5052565;28;20041;-68
2022/03/15 00:08:40;;;;;;;15.48;6.88;;;;;;;;;;5052458;28;20051;-68
2022/03/15 00:11:07;;;;;;;18.45;7.60;;;;;;;;;;5052208;28;20124;-67
2022/03/15 00:13:36;;;;;;;19.73;6.10;;;;;;;;;;5052455;28;20045;-67
2022/03/15 00:16:04;;;;;;;11.65;5.72;;;;;;;;;;5052183;28;20080;-68
2022/03/15 00:18:30;;;;;;;14.25;5.93;;;5.00;99.90;;;;;;5052620;28;20048;-68
2022/03/15 00:21:01;;;;;;;17.83;6.72;;;4.90;99.90;;;;;;5052007;28;20525;-68
2022/03/15 00:23:27;;;;;;;19.05;6.20;;;5.20;99.90;;;;;;5052448;28;20033;-68
2022/03/15 00:25:53;;;;;;;16.52;6.45;;;4.90;99.90;;;;;;5052385;28;20047;-68
2022/03/15 00:28:22;;;;;;;17.70;7.13;;;5.20;99.90;;;;;;5053345;28;20048;-67
2022/03/15 00:30:48;;;;;;;14.20;6.15;;;;;;;;;;5051830;28;20040;-68
2022/03/15 00:33:15;;;;;;;15.50;6.03;;;5.10;99.90;;;;;;5052158;28;20045;-68
2022/03/15 00:35:40;;;;;;;15.85;7.30;;;5.20;99.90;;;;;;5048158;28;20429;-68
2022/03/15 00:38:06;;;;;;;24.02;7.78;;;5.10;99.90;;;;;;5035326;28;20037;-68
2022/03/15 00:40:32;;;;;;;15.73;6.90;;;;;;;;;;5035106;28;20091;-67
2022/03/15 00:42:58;;;;;;;15.13;7.40;;;5.30;99.90;;;;;;5051509;28;20060;-67
2022/03/15 00:45:24;;;;;;;15.50;6.70;;;5.30;99.90;;;;;;5035130;28;20033;-67
2022/03/15 00:47:54;;;;;;;16.55;6.90;;;5.40;99.90;;;;;;5051820;28;20037;-67
2022/03/15 00:50:21;;;;;;;25.90;7.45;;;5.20;99.90;;;;;;5034821;28;20045;-68
2022/03/15 00:52:47;;;;;;;18.65;6.75;;;;;;;;;;5051907;28;20083;-68
2022/03/15 00:55:12;;;;;;;16.15;6.60;;;;;;;;;;5051860;28;20049;-68
2022/03/15 00:57:39;;;;;;;15.13;6.22;;;;;;;;;;5051438;28;20041;-67
2022/03/15 01:00:07;;;;;;;19.67;7.60;;;5.00;99.90;;;;;;5051167;28;20045;-68
2022/03/15 01:02:33;;;;;;;12.77;6.45;;;;;;;;;;5051893;28;20556;-67
2022/03/15 01:04:59;;;;;;;19.92;7.13;;;;;;;;;;5051349;28;20068;-68
2022/03/15 01:07:25;;;;;;;19.05;6.55;;;;;;;;;;5034772;28;20073;-68
2022/03/15 01:09:50;;;;;;;17.92;6.78;;;4.90;99.90;;;;;;5051414;28;20036;-68
2022/03/15 01:12:16;;;;;;;22.48;8.73;;;4.90;99.90;;;;;;5051125;28;20546;-67
2022/03/15 01:14:42;;;;;;;17.35;6.95;;;;;;;;;;5051203;28;20041;-67
2022/03/15 01:17:08;;;;;;;17.25;7.15;;;4.90;99.90;;;;;;5051232;28;20091;-67
2022/03/15 01:19:34;;;;;;;19.73;7.60;;;;;;;;;;5051001;28;20037;-67
2022/03/15 01:22:00;;;;;;;17.75;7.05;;;;;;;;;;5051187;28;20068;-68
2022/03/15 01:24:26;;;;;;;16.00;6.70;;;;;;;;;;5050970;28;20127;-68
2022/03/15 01:26:54;;;;;;;20.23;9.40;;;;;;;;;;5051241;28;20041;-68
2022/03/15 01:29:20;;;;;;;17.23;6.82;;;;;;;;;;5051997;28;20049;-67
2022/03/15 01:31:46;;;;;;;15.65;7.82;;;;;;;;;;5051033;28;20076;-68
2022/03/15 01:34:12;;;;;;;15.02;6.97;;;;;;;;;;5051010;28;20037;-68
2022/03/15 01:36:38;;;;;;;17.08;7.68;;;4.90;99.90;;;;;;5050823;28;20201;-68
2022/03/15 01:39:05;;;;;;;13.65;7.32;;;4.70;99.90;;;;;;5033824;28;20037;-68
2022/03/15 01:41:35;;;;;;;18.23;8.38;;;;;;;;;;5034227;28;20067;-67
2022/03/15 01:44:01;;;;;;;16.48;7.82;;;;;;;;;;5050650;28;20047;-68
2022/03/15 01:46:27;;;;;;;13.85;7.75;;;;;;;;;;5034067;28;20041;-68
2022/03/15 01:48:53;;;;;;;16.73;8.15;;;;;;;;;;5033704;28;20525;-67
2022/03/15 01:51:20;;;;;;;14.88;7.50;;;;;;;;;;5033870;28;20083;-68
2022/03/15 01:53:46;;;;;;;17.98;7.90;;;;;;;;;;5051564;28;20069;-68
2022/03/15 01:56:12;;;;;;;23.33;8.77;;;5.40;99.90;;;;;;5050518;28;20513;-68
2022/03/15 01:58:38;;;;;;;14.98;8.05;;;;;;;;;;5050507;28;20033;-68
2022/03/15 02:01:03;;;;;;;19.30;8.27;;;5.50;99.90;;;;;;5050064;28;20198;-68
2022/03/15 02:03:30;;;;;;;19.92;8.35;;;5.40;99.90;;;;;;5050486;28;20051;-68
2022/03/15 02:05:56;;;;;;;22.20;8.95;;;;;;;;;;5072656;22;20056;-66
2022/03/15 02:08:22;;;;;;;20.15;8.00;;;;;;;;;;5049770;28;20483;-66
2022/03/15 02:10:48;;;;;;;17.67;8.75;;;;;;;;;;5049829;28;20051;-66
2022/03/15 02:13:13;;;;;;;21.63;9.50;;;5.70;99.90;;;;;;5050013;28;20045;-66
2022/03/15 02:15:39;;;;;;;23.35;10.75;;;;;;;;;;5051080;28;20043;-66
2022/03/15 02:18:05;;;;;;;24.55;10.60;;;5.60;99.90;;;;;;5050709;28;20044;-66
2022/03/15 02:20:31;;;;;;;19.30;9.85;;;;;;;;;;5049464;28;20399;-66
2022/03/15 02:22:57;;;;;;;21.58;11.38;;;;;;;;;;5051016;28;20040;-66
2022/03/15 02:25:24;;;;;;;24.17;10.40;;;;;;;;;;5050935;28;20047;-67
2022/03/15 02:27:51;;;;;;;16.40;10.32;;;;;;;;;;5033490;28;20080;-66
2022/03/15 02:30:17;;;;;;;18.13;9.27;;;5.90;99.90;;;;;;5050897;28;20045;-66
2022/03/15 02:32:44;;;;;;;25.33;10.50;;;;;;;;;;5049865;28;20463;-65
2022/03/15 02:35:10;;;;;;;20.95;10.25;;;;;;;;;;5049601;28;20049;-66
2022/03/15 02:37:36;;;;;;;25.00;10.98;;;;;;;;;;5050827;28;20048;-66
2022/03/15 02:40:03;;;;;;;18.70;11.43;;;;;;;;;;5049598;28;20150;-66
2022/03/15 02:42:29;;;;;;;23.58;10.13;;;5.90;99.90;;;;;;5049598;28;20167;-65
2022/03/15 02:44:54;;;;;;;21.30;9.77;;;5.90;99.90;;;;;;5050756;28;20124;-66
2022/03/15 02:47:20;;;;;;;24.00;10.00;;;;;;;;;;5050835;28;20056;-66
2022/03/15 02:49:47;;;;;;;24.25;10.75;;;;;;;;;;5049350;28;20040;-66
2022/03/15 02:52:15;;;;;;;33.92;11.57;;;;;;;;;;5049459;28;20051;-65
2022/03/15 02:54:41;;;;;;;19.30;9.63;;;;;;;;;;5049805;28;20470;-66
2022/03/15 02:57:10;;;;;;;23.05;9.65;;;5.90;99.90;;;;;;5049773;28;20224;-66
2022/03/15 02:59:39;;;;;;;25.08;10.13;;;;;;;;;;5050628;28;20033;-65
2022/03/15 03:02:06;;;;;;;15.57;9.82;;;;;;;;;;5050789;28;20051;-65
2022/03/15 03:04:32;;;;;;;22.17;10.63;;;;;;;;;;5032927;28;20060;-66
2022/03/15 03:06:59;;;;;;;20.73;10.18;;;6.00;99.90;;;;;;5050761;28;20071;-65
2022/03/15 03:09:25;;;;;;;28.70;11.15;;;;;;;;;;5050588;28;20049;-66
2022/03/15 03:11:50;;;;;;;19.00;9.98;;;6.10;99.90;;;;;;5050975;28;20170;-66
2022/03/15 03:14:18;;;;;;;17.10;9.30;;;;;;;;;;5050699;28;20525;-66
2022/03/15 03:16:44;;;;;;;20.15;9.68;;;;;;;;;;5049410;28;20519;-66
2022/03/15 03:19:10;;;;;;;15.68;8.35;;;;;;;;;;5048888;28;20044;-66
2022/03/15 03:21:37;;;;;;;26.92;11.30;;;;;;;;;;5049239;28;20048;-66
2022/03/15 03:24:06;;;;;;;25.08;10.30;;;6.10;99.90;;;;;;5050495;28;20491;-66
2022/03/15 03:26:37;;;;;;;28.08;10.95;;;6.10;99.90;;;;;;5049494;28;20124;-66
2022/03/15 03:29:10;;;;;;;16.60;9.30;;;6.10;99.90;;;;;;5052729;28;20401;-66
2022/03/15 03:31:37;;;;;;;21.20;9.02;;;6.20;99.90;;;;;;5052966;28;20115;-66
2022/03/15 03:34:04;;;;;;;21.58;10.73;;;6.10;99.90;;;;;;5054026;28;20041;-66
2022/03/15 03:36:31;;;;;;;25.23;10.85;;;6.20;99.90;;;;;;5048902;28;20080;-66
2022/03/15 03:38:57;;;;;;;24.15;11.35;;;;;;;;;;5053829;28;20052;-66
2022/03/15 03:41:24;;;;;;;27.88;11.00;;;6.20;99.90;;;;;;5052797;28;20037;-66
2022/03/15 03:43:49;;;;;;;27.58;11.85;;;6.00;99.90;;;;;;5053938;28;20104;-66
2022/03/15 03:46:16;;;;;;;24.35;10.52;;;6.20;99.90;;;;;;5052717;28;20578;-67
2022/03/15 03:48:41;;;;;;;22.30;10.38;;;6.30;99.90;;;;;;5052716;28;20095;-66
2022/03/15 03:51:08;;;;;;;34.03;12.00;;;;;;;;;;5053890;28;20040;-66
2022/03/15 03:53:34;;;;;;;24.70;11.50;;;;;;;;;;5054480;28;20045;-66
2022/03/15 03:56:00;;;;;;;25.02;13.10;;;;;;;;;;5052815;28;20040;-67
2022/03/15 03:58:25;;;;;;;22.20;11.25;;;6.30;99.90;;;;;;5052887;28;20049;-66
2022/03/15 04:00:51;;;;;;;23.75;12.27;;;6.20;99.90;;;;;;5053389;28;20044;-65
2022/03/15 04:03:17;;;;;;;25.10;11.93;;;6.40;99.90;;;;;;5052692;28;20399;-66
2022/03/15 04:05:45;;;;;;;21.20;12.38;;;6.30;99.90;;;;;;5052066;28;20041;-65
2022/03/15 04:08:12;;;;;;;19.38;9.82;;;6.40;99.90;;;;;;5053634;28;20453;-66
2022/03/15 04:10:38;;;;;;;23.25;12.15;;;6.30;99.90;;;;;;5053313;28;20052;-66
2022/03/15 04:13:04;;;;;;;23.13;11.82;;;6.30;99.90;;;;;;5035574;28;20037;-66
2022/03/15 04:15:33;;;;;;;25.77;11.95;;;6.30;99.90;;;;;;5051987;28;20082;-66
2022/03/15 04:17:59;;;;;;;30.27;13.05;;;6.40;99.90;;;;;;5053568;28;20048;-66
2022/03/15 04:20:24;;;;;;;25.52;11.68;;;6.30;99.90;;;;;;5053307;28;20041;-66
2022/03/15 04:22:50;;;;;;;30.30;12.60;;;6.40;99.90;;;;;;5052045;28;20505;-66
2022/03/15 04:25:15;;;;;;;28.50;13.23;;;6.30;99.90;;;;;;5052196;28;20044;-67
2022/03/15 04:27:41;;;;;;;20.70;11.15;;;;;;;;;;5051933;28;20041;-67
2022/03/15 04:30:07;;;;;;;24.52;12.15;;;6.40;99.90;;;;;;5052865;28;20126;-66
2022/03/15 04:32:33;;;;;;;26.42;12.52;;;6.30;99.90;;;;;;5052337;28;20152;-66
2022/03/15 04:34:59;;;;;;;22.73;12.50;;;6.40;99.90;;;;;;5053281;28;20045;-66
2022/03/15 04:37:24;;;;;;;24.92;12.77;;;6.40;99.90;;;;;;5051865;28;20041;-66
2022/03/15 04:39:50;;;;;;;27.52;12.85;;;6.30;99.90;;;;;;5052235;28;20045;-66
2022/03/15 04:42:16;;;;;;;22.63;13.65;;;6.20;99.90;;;;;;5052020;28;20056;-66
2022/03/15 04:44:42;;;;;;;26.40;12.75;;;6.10;99.90;;;;;;5051518;28;20072;-66
2022/03/15 04:47:07;;;;;;;28.30;12.07;;;6.20;99.90;;;;;;5051817;28;20041;-66
2022/03/15 04:49:34;;;;;;;29.08;12.27;;;6.20;99.90;;;;;;5051873;28;20033;-66
2022/03/15 04:52:01;;;;;;;36.53;14.65;;;6.20;99.90;;;;;;5051763;28;20056;-66
2022/03/15 04:54:28;;;;;;;26.25;13.98;;;;;;;;;;5051386;28;20471;-66
2022/03/15 04:56:54;;;;;;;24.90;12.30;;;6.10;99.90;;;;;;5034733;28;20138;-66
2022/03/15 04:59:19;;;;;;;25.10;12.73;;;6.00;99.90;;;;;;5034645;28;20538;-66
2022/03/15 05:01:45;;;;;;;29.83;13.15;;;6.20;99.90;;;;;;5053303;28;20029;-66
2022/03/15 05:04:10;;;;;;;29.80;13.15;;;6.30;99.90;;;;;;5052611;28;20142;-66
2022/03/15 05:06:38;;;;;;;24.55;13.55;;;6.20;99.90;;;;;;5051539;28;20052;-66
2022/03/15 05:09:04;;;;;;;25.67;12.88;;;6.20;99.90;;;;;;5051134;28;20076;-66
2022/03/15 05:11:31;;;;;;;25.85;13.27;;;;;;;;;;5051183;28;20037;-67
2022/03/15 05:13:57;;;;;;;24.25;13.52;;;;;;;;;;5052225;28;20493;-64
2022/03/15 05:16:25;;;;;;;29.92;12.48;;;6.10;99.90;;;;;;5052529;28;20047;-66
2022/03/15 05:18:53;;;;;;;25.65;13.35;;;6.20;99.90;;;;;;5050790;28;20045;-66
2022/03/15 05:21:25;;;;;;;28.48;14.20;;;6.20;99.90;;;;;;5050795;28;20459;-66
2022/03/15 05:23:51;;;;;;;30.90;15.52;;;;;;;;;;5052189;28;20483;-67
2022/03/15 05:26:17;;;;;;;30.48;14.15;;;6.00;99.90;;;;;;5050912;28;20040;-66
2022/03/15 05:28:44;;;;;;;28.25;15.77;;;6.00;99.90;;;;;;5052213;28;20044;-66
2022/03/15 05:31:10;;;;;;;28.83;14.57;;;6.00;99.90;;;;;;5051924;28;20045;-66
2022/03/15 05:33:36;;;;;;;28.83;14.23;;;;;;;;;;5050745;28;20052;-66
2022/03/15 05:36:03;;;;;;;29.65;14.50;;;6.00;99.90;;;;;;5033960;28;20486;-66
2022/03/15 05:38:28;;;;;;;24.15;12.10;;;6.00;99.90;;;;;;5050632;28;20114;-66
2022/03/15 05:40:54;;;;;;;22.27;13.45;;;6.00;99.90;;;;;;5050099;28;20139;-65
2022/03/15 05:43:22;;;;;;;32.50;14.70;;;6.20;99.90;;;;;;5051502;28;20403;-66
2022/03/15 05:45:48;;;;;;;28.52;15.43;;;6.20;99.90;;;;;;5050275;28;20033;-66
2022/03/15 05:48:14;;;;;;;28.65;15.25;;;6.00;99.90;;;;;;5050355;28;20079;-66
2022/03/15 05:50:39;;;;;;;27.48;14.52;;;6.20;99.90;;;;;;5050135;28;20076;-68
2022/03/15 05:53:05;;;;;;;28.95;16.15;;;6.20;99.90;;;;;;5049814;28;20037;-66
2022/03/15 05:55:32;;;;;;;30.80;15.52;;;6.20;99.90;;;;;;5051403;28;20490;-66
2022/03/15 05:57:58;;;;;;;25.55;13.95;;;6.20;99.90;;;;;;5050214;28;20064;-66
2022/03/15 06:00:24;;;;;;;26.23;15.40;;;6.20;99.90;;;;;;5050192;28;20106;-66
2022/03/15 06:02:50;;;;;;;30.20;15.20;;;;;;;;;;5050536;28;20483;-66
2022/03/15 06:05:16;;;;;;;32.88;16.17;;;6.10;99.90;;;;;;5051288;28;20509;-67
2022/03/15 06:07:50;;;;;;;28.13;15.68;;;6.20;99.90;;;;;;5051458;28;20126;-66
2022/03/15 06:10:17;;;;;;;32.05;14.85;;;;;;;;;;5050914;28;20033;-65
2022/03/15 06:12:43;;;;;;;30.63;13.80;;;;;;;;;;5051573;28;20045;-65
2022/03/15 06:15:10;;;;;;;27.40;15.52;;;6.20;99.90;;;;;;5049876;28;20048;-65
2022/03/15 06:17:49;;;;;;;35.97;15.63;;;6.00;99.90;;;;;;5051179;28;20565;-67
2022/03/15 06:20:18;;;;;;;25.27;15.68;;;6.20;99.90;;;;;;5049545;28;20211;-66
2022/03/15 06:22:44;;;;;;;29.48;14.50;;;6.20;99.90;;;;;;5051188;28;20197;-66
2022/03/15 06:25:10;;;;;;;36.13;16.35;;;;;;;;;;5049761;28;20040;-66
2022/03/15 06:27:36;;;;;;;37.95;17.48;;;;;;;;;;5050049;28;20049;-65
2022/03/15 06:30:08;;;;;;;34.55;15.82;;;6.10;99.90;;;;;;5049704;28;20103;-65
2022/03/15 06:32:34;;;;;;;28.90;16.20;;;;;;;;;;5050129;28;20041;-65
2022/03/15 06:35:02;;;;;;;24.92;13.48;;;;;;;;;;5046224;28;20064;-65
2022/03/15 06:37:28;;;;;;;28.80;14.65;;;;;;;;;;5033221;28;20041;-65
2022/03/15 06:39:55;;;;;;;22.27;13.40;;;6.10;99.90;;;;;;5050750;28;20049;-66
2022/03/15 06:42:21;;;;;;;29.20;14.02;;;6.30;99.90;;;;;;5049984;28;20036;-66
2022/03/15 06:44:47;;;;;;;29.13;16.30;;;6.20;99.90;;;;;;5050785;28;20079;-66
2022/03/15 06:47:13;;;;;;;30.33;15.65;;;;;;;;;;5050034;28;20037;-67
2022/03/15 06:49:39;;;;;;;33.63;14.70;;;6.30;99.90;;;;;;5049232;28;20044;-66
2022/03/15 06:52:05;;;;;;;24.17;14.68;;;;;;;;;;5049412;28;20132;-66
2022/03/15 06:54:31;;;;;;;30.80;15.68;;;6.40;99.90;;;;;;5038743;28;20033;-68
2022/03/15 06:56:57;;;;;;;32.67;14.43;;;6.50;99.90;;;;;;5039565;28;20533;-66
2022/03/15 06:59:23;;;;;;;29.77;14.45;;;6.60;99.90;;;;;;5041812;28;20038;-66
2022/03/15 07:01:49;;;;;;;26.10;15.00;;;6.60;99.90;;;;;;5039283;28;20494;-65
2022/03/15 07:04:17;;;;;;;31.70;15.05;;;;;;;;;;5043459;28;20037;-67
2022/03/15 07:06:43;;;;;;;24.70;14.65;;;6.60;99.90;;;;;;5025243;28;20095;-67
2022/03/15 07:09:08;;;;;;;31.25;16.02;;;6.60;99.90;;;;;;5036259;28;20495;-67
2022/03/15 07:11:34;;;;;;;30.15;15.32;;;;;;;;;;5036214;28;20037;-66
2022/03/15 07:14:00;;;;;;;28.25;14.65;;;6.70;99.90;;;;;;5049444;28;20052;-68
2022/03/15 07:16:26;;;;;;;32.47;16.13;;;6.70;99.90;;;;;;5048716;28;20025;-68
2022/03/15 07:18:52;;;;;;;30.02;15.05;;;;;;;;;;5045329;28;20045;-64
2022/03/15 07:21:18;;;;;;;31.88;16.45;;;;;;;;;;5057581;28;20052;-65
2022/03/15 07:23:44;;;;;;;29.60;15.60;;;6.60;99.90;;;;;;5071077;28;20227;-65
2022/03/15 07:26:10;;;;;;;28.33;14.98;;;;;;;;;;5071354;28;20090;-64
2022/03/15 07:28:36;;;;;;;27.90;15.38;;;6.70;99.90;;;;;;5070641;28;20041;-65
2022/03/15 07:31:02;;;;;;;37.55;19.45;;;;;;;;;;5049267;28;20075;-65
2022/03/15 07:33:28;;;;;;;32.65;17.30;;;;;;;;;;5049827;28;20123;-65
2022/03/15 07:35:54;;;;;;;30.25;15.88;;;;;;;;;;5049514;28;20059;-66
2022/03/15 07:38:20;;;;;;;29.45;16.70;;;;;;;;;;5051941;28;20121;-66
2022/03/15 07:40:46;;;;;;;33.22;16.67;;;;;;;;;;5043724;28;20447;-66
2022/03/15 07:43:12;;;;;;;38.90;17.42;;;7.00;99.90;;;;;;5029144;28;20518;-65
2022/03/15 07:45:38;;;;;;;29.85;17.40;;;6.90;99.90;;;;;;5052208;28;20028;-65
2022/03/15 07:48:04;;;;;;;34.92;16.85;;;6.90;99.90;;;;;;5033642;28;20384;-65
2022/03/15 07:50:30;;;;;;;38.88;17.92;;;7.10;99.90;;;;;;5048712;28;20042;-65
2022/03/15 07:52:56;;;;;;;30.20;17.45;;;7.10;99.90;;;;;;5034160;28;20037;-65
2022/03/15 07:55:21;;;;;;;34.15;16.45;;;7.10;99.90;;;;;;5049403;28;20095;-65
2022/03/15 07:57:49;;;;;;;34.20;17.00;;;7.30;99.90;;;;;;5039852;28;20526;-66
2022/03/15 08:00:15;;;;;;;34.83;18.50;;;7.20;99.90;;;;;;5052194;28;20044;-65
2022/03/15 08:02:41;;;;;;;36.60;19.13;;;7.30;99.90;;;;;;5052166;28;20090;-66
2022/03/15 08:05:07;;;;;;;39.90;19.23;;;7.20;99.90;;;;;;5069258;22;20045;-67
2022/03/15 08:07:36;;;;;;;30.50;16.90;;;;;;;;;;5052234;28;20040;-67
2022/03/15 08:10:03;;;;;;;30.10;18.35;;;7.50;99.90;;;;;;5051791;28;20045;-68
2022/03/15 08:12:29;;;;;;;33.65;19.50;;;7.40;99.90;;;;;;5035768;28;20458;-68
2022/03/15 08:14:55;;;;;;;38.08;20.15;;;7.50;99.90;;;;;;5051421;28;20048;-68
2022/03/15 08:17:20;;;;;;;34.63;19.83;;;7.60;99.90;;;;;;5052717;28;20053;-68
2022/03/15 08:19:46;;;;;;;37.47;19.27;;;7.70;99.90;;;;;;5035133;28;20049;-67
2022/03/15 08:22:11;;;;;;;34.92;19.05;;;7.50;99.90;;;;;;5032393;28;20396;-68
2022/03/15 08:24:37;;;;;;;39.17;20.48;;;7.70;99.90;;;;;;5033527;28;20099;-68
2022/03/15 08:27:03;;;;;;;41.03;21.77;;;7.70;99.90;;;;;;5044455;28;20037;-68
2022/03/15 08:29:30;;;;;;;36.78;20.20;;;7.70;99.90;;;;;;5051668;28;20032;-67
2022/03/15 08:31:56;;;;;;;38.38;22.10;;;7.90;99.90;;;;;;5051925;28;20075;-68
2022/03/15 08:34:22;;;;;;;31.50;19.60;;;;;;;;;;5052209;28;20036;-68
2022/03/15 08:36:47;;;;;;;35.78;20.25;;;8.10;99.90;;;;;;5051372;28;20094;-68
2022/03/15 08:39:14;;;;;;;34.72;19.15;;;7.80;99.90;;;;;;5051821;28;20414;-67
2022/03/15 08:41:40;;;;;;;43.05;24.13;;;8.10;99.90;;;;;;5051822;28;20052;-68
2022/03/15 08:44:06;;;;;;;42.53;23.38;;;8.10;99.90;;;;;;5048436;28;20048;-67
2022/03/15 08:46:32;;;;;;;37.00;20.08;;;;;;;;;;5051586;28;20032;-68
2022/03/15 08:48:58;;;;;;;36.03;21.20;;;8.00;99.90;;;;;;5035046;28;20131;-68
2022/03/15 08:51:23;;;;;;;33.90;20.48;;;8.20;99.90;;;;;;5035149;28;20050;-67
2022/03/15 08:53:49;;;;;;;38.70;20.88;;;8.10;99.90;;;;;;5015824;28;20037;-68
2022/03/15 08:56:14;;;;;;;38.97;21.35;;;8.30;99.90;;;;;;5032023;28;20045;-68
2022/03/15 08:58:40;;;;;;;34.40;20.67;;;8.20;99.90;;;;;;5015503;28;20037;-68
2022/03/15 09:01:06;;;;;;;33.38;20.45;;;8.20;99.90;;;;;;5025052;28;20045;-67
2022/03/15 09:03:31;;;;;;;46.28;22.80;;;8.30;99.90;;;;;;5033601;28;20033;-67
2022/03/15 09:05:57;;;;;;;33.88;20.92;;;8.40;99.90;;;;;;5047917;28;20099;-68
2022/03/15 09:08:22;;;;;;;36.92;20.77;;;8.40;99.90;;;;;;5051440;28;20568;-68
2022/03/15 09:10:48;;;;;;;35.75;20.23;;;8.10;99.90;;;;;;5051465;28;20110;-68
2022/03/15 09:13:14;;;;;;;38.60;22.48;;;8.50;99.90;;;;;;5051710;28;20052;-68
2022/03/15 09:15:40;;;;;;;35.92;21.65;;;8.40;99.90;;;;;;5034603;28;20504;-68
2022/03/15 09:18:06;;;;;;;37.45;20.33;;;8.40;99.90;;;;;;5050597;28;20036;-68
2022/03/15 09:20:31;;;;;;;37.45;22.05;;;8.50;99.90;;;;;;5044489;28;20045;-68
2022/03/15 09:22:57;;;;;;;39.08;21.05;;;8.40;99.90;;;;;;5031279;28;20107;-68
2022/03/15 09:25:23;;;;;;;41.67;22.88;;;8.40;99.90;;;;;;5031042;28;20055;-68
2022/03/15 09:27:50;;;;;;;37.42;21.40;;;8.60;99.90;;;;;;5014568;28;20089;-68
2022/03/15 09:30:16;;;;;;;43.13;23.65;;;8.50;99.90;;;;;;5014257;28;20048;-67
2022/03/15 09:32:42;;;;;;;47.38;23.80;;;8.60;99.90;;;;;;5031084;28;20048;-68
2022/03/15 09:35:09;;;;;;;38.40;21.67;;;8.70;99.90;;;;;;5023813;28;20049;-67
2022/03/15 09:37:35;;;;;;;36.53;22.10;;;;;;;;;;5051004;28;20094;-68
2022/03/15 09:40:06;;;;;;;37.95;20.10;;;8.70;99.90;;;;;;5050536;28;20037;-68
2022/03/15 09:42:35;;;;;;;36.28;22.17;;;8.80;99.90;;;;;;5034374;28;20040;-68
2022/03/15 09:45:02;;;;;;;42.13;23.10;;;8.70;99.90;;;;;;5050531;28;20079;-68
2022/03/15 09:47:32;;;;;;;32.50;21.50;;;9.00;99.90;;;;;;5050809;28;20048;-68
2022/03/15 09:49:59;;;;;;;39.45;21.40;;;;;;;;;;5051998;28;20093;-68
2022/03/15 09:52:27;;;;;;;42.53;20.63;;;9.30;99.90;;;;;;5049326;28;20073;-68
2022/03/15 09:54:54;;;;;;;39.38;23.50;;;9.30;99.90;;;;;;5048057;28;20132;-69
2022/03/15 09:57:21;;;;;;;41.25;21.55;;;9.40;99.90;;;;;;5044421;28;20052;-69
2022/03/15 09:59:49;;;;;;;37.42;21.60;;;9.30;99.90;;;;;;5050001;28;20049;-68
2022/03/15 10:02:16;;;;;;;35.08;21.02;;;;;;;;;;5045299;28;20033;-68
2022/03/15 10:04:42;;;;;;;35.22;21.40;;;9.50;99.90;;;;;;5041877;28;20090;-68
2022/03/15 10:07:08;;;;;;;33.42;20.17;;;9.50;99.90;;;;;;5049863;28;20036;-68
2022/03/15 10:09:35;;;;;;;36.67;21.52;;;;;;;;;;5047259;28;20131;-68
2022/03/15 10:12:02;;;;;;;35.08;21.10;;;9.50;99.90;;;;;;5049589;28;20056;-69
2022/03/15 10:14:28;;;;;;;33.25;20.42;;;9.30;99.90;;;;;;5033798;28;20037;-69
2022/03/15 10:17:01;;;;;;;39.78;22.75;;;9.40;99.90;;;;;;5049629;28;20118;-68
2022/03/15 10:19:28;;;;;;;32.60;20.35;;;9.40;99.90;;;;;;5035445;28;20491;-68
2022/03/15 10:21:55;;;;;;;34.63;20.20;;;9.40;99.90;;;;;;5047476;28;20041;-69
2022/03/15 10:24:25;;;;;;;31.77;20.90;;;9.50;99.90;;;;;;5049916;28;20047;-68
2022/03/15 10:26:52;;;;;;;33.70;20.67;;;;;;;;;;5050265;28;20457;-68
2022/03/15 10:29:19;;;;;;;37.72;21.10;;;9.60;99.90;;;;;;5049712;28;20047;-67
2022/03/15 10:31:45;;;;;;;36.85;20.60;;;;;;;;;;5050184;28;20041;-69
2022/03/15 10:34:12;;;;;;;32.83;19.63;;;9.30;99.90;;;;;;5049797;28;20037;-69
2022/03/15 10:36:41;;;;;;;29.05;19.55;;;9.60;99.90;;;;;;5050001;28;20083;-69
2022/03/15 10:39:08;;;;;;;34.17;19.75;;;9.50;99.90;;;;;;5035585;28;20045;-68
2022/03/15 10:41:50;;;;;;;29.90;19.52;;;9.40;99.90;;;;;;5054199;28;20520;-69
2022/03/15 10:44:28;;;;;;;30.85;19.30;;;9.50;99.90;;;;;;5052801;28;20441;-69
2022/03/15 10:47:00;;;;;;;31.73;19.30;;;9.60;99.90;;;;;;5066467;28;20042;-69
2022/03/15 10:49:26;;;;;;;35.42;19.73;;;9.50;99.90;;;;;;5033869;28;20044;-69
2022/03/15 10:51:52;;;;;;;33.47;18.67;;;9.70;99.90;;;;;;5034216;28;20073;-68
2022/03/15 10:54:18;;;;;;;32.97;19.52;;;9.40;99.90;;;;;;5034339;28;20073;-69
2022/03/15 10:56:55;;;;;;;34.83;19.80;;;9.30;99.90;;;;;;5033744;28;20041;-68
2022/03/15 10:59:22;;;;;;;33.00;19.27;;;;;;;;;;5033581;28;20046;-68
2022/03/15 11:01:49;;;;;;;33.00;19.08;;;9.60;99.90;;;;;;5033891;28;20399;-69
2022/03/15 11:04:16;;;;;;;30.50;19.60;;;;;;;;;;5034057;28;20067;-68
2022/03/15 11:06:49;;;;;;;33.70;19.00;;;9.40;99.90;;;;;;5033787;28;20042;-69
2022/03/15 11:09:18;;;;;;;31.02;18.70;;;9.20;99.90;;;;;;5033472;28;20041;-67
2022/03/15 11:11:46;;;;;;;30.33;19.05;;;9.20;99.90;;;;;;5033911;28;20469;-68
2022/03/15 11:14:13;;;;;;;35.35;19.67;;;;;;;;;;5022211;28;20029;-69
2022/03/15 11:16:40;;;;;;;37.83;20.27;;;9.30;99.90;;;;;;5049949;28;20111;-68
2022/03/15 11:19:06;;;;;;;33.28;18.25;;;9.30;99.90;;;;;;5053417;28;20075;-69
2022/03/15 11:21:35;;;;;;;28.45;18.05;;;9.20;99.90;;;;;;5038700;28;20562;-67
2022/03/15 11:24:03;;;;;;;30.42;18.02;;;9.40;99.90;;;;;;5033385;28;20034;-69
2022/03/15 11:26:34;;;;;;;31.05;18.52;;;9.40;99.90;;;;;;5044746;28;20060;-69
2022/03/15 11:29:03;;;;;;;29.48;17.92;;;9.60;99.90;;;;;;5036223;28;20534;-68
2022/03/15 11:31:30;;;;;;;38.47;19.13;;;9.60;99.90;;;;;;5053249;28;20048;-69
2022/03/15 11:33:58;;;;;;;33.72;18.15;;;9.50;99.90;;;;;;5053152;28;20045;-68
2022/03/15 11:36:25;;;;;;;29.05;19.02;;;9.70;99.90;;;;;;5053286;28;20088;-69
2022/03/15 11:38:52;;;;;;;32.95;18.40;;;9.60;99.90;;;;;;5052940;28;20041;-68
2022/03/15 11:41:20;;;;;;;25.00;16.65;;;9.50;99.90;;;;;;5052814;28;20131;-70
2022/03/15 11:44:14;;;;;;;30.20;16.23;;;9.60;99.90;;;;;;5052666;28;20045;-70
2022/03/15 11:46:46;;;;;;;28.58;16.88;;;9.60;99.90;;;;;;5052658;28;20135;-69
2022/03/15 11:49:17;;;;;;;28.75;16.70;;;9.70;99.90;;;;;;5051859;28;20123;-68
2022/03/15 11:52:03;;;;;;;25.90;16.60;;;9.80;99.90;;;;;;5052315;28;20075;-69
2022/03/15 11:54:38;;;;;;;24.50;15.15;;;9.70;99.90;;;;;;5035985;28;20045;-69
2022/03/15 11:57:10;;;;;;;26.15;15.32;;;10.00;99.90;;;;;;5052534;28;20045;-69
2022/03/15 11:59:50;;;;;;;29.10;17.37;;;10.20;99.90;;;;;;5052451;28;20049;-68
2022/03/15 12:02:34;;;;;;;28.17;17.02;;;10.30;99.90;;;;;;5052385;28;20033;-69
2022/03/15 12:05:20;;;;;;;29.45;16.13;;;10.50;99.90;;;;;;5051771;28;20083;-68
2022/03/15 12:07:47;;;;;;;29.13;18.27;;;;;;;;;;5060669;28;20619;-68
2022/03/15 12:10:24;;;;;;;25.45;16.75;;;10.70;99.90;;;;;;5069011;28;20052;-68
2022/03/15 12:13:05;;;;;;;28.40;17.35;;;10.70;99.90;;;;;;5068956;28;20355;-69
2022/03/15 12:15:36;;;;;;;26.63;16.85;;;10.80;99.90;;;;;;5069226;28;20044;-68
2022/03/15 12:21:04;;;;;;;24.52;15.60;;;11.00;99.90;;;;;;5060347;28;20506;-68
2022/03/15 12:23:47;;;;;;;18.73;12.60;;;10.90;99.90;;;;;;5049480;28;20487;-68
2022/03/15 12:26:22;;;;;;;24.38;14.48;;;11.10;99.90;;;;;;5048772;28;20458;-68
2022/03/15 12:29:17;;;;;;;19.20;13.30;;;11.20;99.90;;;;;;5049215;28;20433;-69
2022/03/15 12:31:45;;;;;;;20.48;11.65;;;11.40;99.90;;;;;;5037843;28;20130;-68
2022/03/15 12:34:11;;;;;;;19.13;12.00;;;;;;;;;;5032231;28;20041;-69
2022/03/15 12:36:45;;;;;;;16.95;9.60;;;11.30;99.90;;;;;;5038348;28;20127;-69
2022/03/15 12:39:14;;;;;;;16.80;10.82;;;11.50;99.90;;;;;;5031719;28;20033;-69
2022/03/15 12:41:40;;;;;;;16.15;11.10;;;11.60;99.90;;;;;;5045134;28;20041;-69
2022/03/15 12:44:09;;;;;;;17.77;9.80;;;11.50;99.90;;;;;;5051134;28;20033;-69
2022/03/15 12:46:38;;;;;;;13.63;10.50;;;11.60;99.90;;;;;;5051389;28;20495;-70
2022/03/15 12:49:09;;;;;;;13.07;8.18;;;11.60;99.90;;;;;;5045979;28;20494;-69
2022/03/15 12:51:43;;;;;;;16.48;9.02;;;11.60;99.90;;;;;;5048195;28;20033;-69
2022/03/15 12:54:12;;;;;;;15.45;9.95;;;11.70;99.90;;;;;;5049287;28;20033;-69
2022/03/15 12:56:47;;;;;;;14.50;9.00;;;11.70;99.90;;;;;;5051478;28;20040;-69
2022/03/15 12:59:21;;;;;;;15.05;10.18;;;11.90;99.90;;;;;;5051613;28;20037;-69
2022/03/15 13:01:55;;;;;;;13.68;8.13;;;11.90;99.90;;;;;;5051192;28;20136;-69
2022/03/15 13:04:21;;;;;;;12.15;8.85;;;;;;;;;;5051506;28;20073;-70
2022/03/15 13:06:48;;;;;;;14.05;7.30;;;;;;;;;;5051155;28;20120;-68
2022/03/15 13:09:24;;;;;;;11.93;6.32;;;11.60;99.90;;;;;;5051051;28;20120;-68
2022/03/15 13:11:51;;;;;;;12.50;7.38;;;11.70;99.90;;;;;;5046677;28;20029;-69